Time;durP1;ratioP1;P1;durP2;ratioP2;P2;SDS_P1;SDS_P2;PMS_P1;PMS_P2;Temp;Humidity;BMP_temperature;BMP_pressure;BME280_temperature;BME280_humidity;BME280_pressure;Samples;Min_cycle;Max_cycle;Signal;HPM_P1;HPM_P2
2021/11/09 00:01:31;;;;;;;20.92;11.55;;;;;;;10.94;99.92;93428.41;5032652;28;20072;-79
2021/11/09 00:04:02;;;;;;;29.65;12.57;;;;;;;10.92;100.00;93424.50;5032463;28;20600;-79
2021/11/09 00:06:32;;;;;;;18.67;11.75;;;;;;;10.88;100.00;93420.75;5032418;28;20044;-79
2021/11/09 00:09:06;;;;;;;17.17;11.65;;;;;;;10.78;100.00;93406.56;5032345;28;20847;-79
2021/11/09 00:11:33;;;;;;;18.25;11.93;;;;;;;10.87;100.00;93419.97;5032757;28;20076;-80
2021/11/09 00:14:01;;;;;;;22.17;14.07;;;;;;;10.65;100.00;93376.59;5032408;28;20053;-79
2021/11/09 00:16:30;;;;;;;19.42;11.32;;;;;;;10.73;100.00;93395.34;5032019;28;20462;-79
2021/11/09 00:18:57;;;;;;;21.23;12.10;;;;;;;10.77;100.00;93414.47;5032428;28;20057;-79
2021/11/09 00:21:24;;;;;;;20.25;12.68;;;;;;;10.82;100.00;93410.31;5032542;28;20057;-79
2021/11/09 00:23:51;;;;;;;17.25;11.63;;;;;;;10.88;100.00;93413.81;5032479;28;20095;-79
2021/11/09 00:26:20;;;;;;;21.45;11.07;;;;;;;10.88;100.00;93393.25;5032136;28;20053;-79
2021/11/09 00:28:47;;;;;;;18.70;10.65;;;;;;;10.66;100.00;93349.91;5031746;28;20144;-79
2021/11/09 00:31:15;;;;;;;21.50;11.82;;;;;;;10.92;100.00;93391.09;5031856;28;20514;-79
2021/11/09 00:33:42;;;;;;;19.42;12.13;;;;;;;10.93;100.00;93406.28;5032445;28;20126;-79
2021/11/09 00:36:09;;;;;;;18.92;11.38;;;;;;;10.69;100.00;93370.06;5032526;28;20581;-79
2021/11/09 00:38:37;;;;;;;20.05;11.50;;;;;;;10.95;100.00;93413.78;5029993;28;20351;-79
2021/11/09 00:41:04;;;;;;;18.85;11.10;;;;;;;10.83;100.00;93391.31;5032445;28;20053;-79
2021/11/09 00:43:31;;;;;;;19.30;12.18;;;;;;;10.86;100.00;93391.91;5031536;28;20111;-79
2021/11/09 00:45:58;;;;;;;22.23;12.32;;;;;;;10.63;100.00;93380.34;5031902;28;20498;-79
2021/11/09 00:49:54;;;;;;;27.42;13.75;;;;;;;10.25;100.00;93374.97;5130189;27;20533;-78
2021/11/09 00:52:20;;;;;;;21.60;13.52;;;;;;;10.36;100.00;93370.16;5129981;27;20070;-78
2021/11/09 00:54:47;;;;;;;22.70;14.43;;;;;;;10.31;100.00;93370.78;5130479;27;20459;-78
2021/11/09 00:57:14;;;;;;;19.67;13.70;;;;;;;10.30;100.00;93374.34;5129752;27;20048;-78
2021/11/09 00:59:41;;;;;;;22.88;14.18;;;;;;;10.27;100.00;93367.03;5129710;27;20084;-78
2021/11/09 01:02:08;;;;;;;22.13;13.40;;;;;;;10.32;100.00;93369.78;5130073;27;20055;-78
2021/11/09 01:04:35;;;;;;;21.63;12.75;;;;;;;10.29;100.00;93385.63;5129246;27;20047;-78
2021/11/09 01:07:04;;;;;;;23.23;13.68;;;;;;;10.18;100.00;93386.25;5129820;27;20077;-78
2021/11/09 01:09:30;;;;;;;29.83;18.25;;;;;;;10.18;100.00;93404.22;5129686;27;20074;-79
2021/11/09 01:11:57;;;;;;;29.20;17.45;;;;;;;10.08;100.00;93402.84;5129607;27;20568;-78
2021/11/09 01:14:25;;;;;;;34.35;17.95;;;;;;;10.07;100.00;93414.13;5129714;27;20051;-79
2021/11/09 01:16:53;;;;;;;25.95;16.70;;;;;;;9.95;100.00;93423.41;5129268;27;20047;-78
2021/11/09 01:19:20;;;;;;;34.15;20.95;;;;;;;9.49;100.00;93412.97;5129505;27;20038;-79
2021/11/09 01:21:47;;;;;;;35.30;20.02;;;;;;;9.46;100.00;93424.44;5129605;27;20614;-79
2021/11/09 01:24:17;;;;;;;38.28;21.88;;;;;;;9.42;100.00;93446.31;5129407;27;20154;-79
2021/11/09 01:26:46;;;;;;;30.13;19.55;;;;;;;9.19;100.00;93452.63;5129095;27;20502;-79
2021/11/09 01:29:15;;;;;;;31.10;19.10;;;;;;;9.36;100.00;93449.69;5129073;27;20142;-79
2021/11/09 01:31:43;;;;;;;26.48;17.33;;;;;;;9.47;100.00;93463.69;5129011;27;20047;-78
2021/11/09 01:34:10;;;;;;;25.20;16.42;;;;;;;9.58;100.00;93463.09;5129526;27;20067;-78
2021/11/09 01:36:37;;;;;;;24.80;14.65;;;;;;;9.56;100.00;93472.78;5128862;27;20050;-79
2021/11/09 01:39:04;;;;;;;23.20;14.52;;;;;;;9.43;100.00;93454.78;5129148;27;20054;-79
2021/11/09 01:41:33;;;;;;;22.70;14.48;;;;;;;9.59;100.00;93461.31;5121088;27;20073;-80
2021/11/09 01:44:00;;;;;;;19.40;13.02;;;;;;;9.63;100.00;93459.97;5108463;27;20162;-79
2021/11/09 01:46:28;;;;;;;18.75;13.57;;;;;;;9.72;100.00;93463.88;5108434;28;20047;-81
2021/11/09 01:48:56;;;;;;;16.98;11.60;;;;;;;9.80;100.00;93460.34;5108017;28;20504;-81
2021/11/09 01:51:23;;;;;;;17.70;12.38;;;;;;;9.88;100.00;93451.66;5108693;28;20673;-81
2021/11/09 01:53:54;;;;;;;23.23;12.88;;;;;;;9.98;100.00;93462.31;5108898;27;20044;-81
2021/11/09 01:56:25;;;;;;;20.80;13.40;;;;;;;9.90;100.00;93454.78;5107909;28;20138;-80
2021/11/09 01:58:55;;;;;;;19.38;13.20;;;;;;;9.91;100.00;93453.03;5108333;28;20047;-80
2021/11/09 02:01:23;;;;;;;19.98;12.30;;;;;;;9.92;100.00;93459.72;5093734;28;20050;-81
2021/11/09 02:03:52;;;;;;;21.52;13.43;;;;;;;9.85;100.00;93441.75;5094921;28;20059;-80
2021/11/09 02:06:21;;;;;;;21.48;13.25;;;;;;;9.84;100.00;93437.63;5095125;28;20040;-81
2021/11/09 02:08:48;;;;;;;22.65;13.38;;;;;;;9.85;100.00;93463.09;5094397;28;20055;-81
2021/11/09 02:11:15;;;;;;;24.02;14.23;;;;;;;9.71;100.00;93430.72;5094423;28;20047;-81
2021/11/09 02:13:43;;;;;;;21.02;12.45;;;;;;;9.84;100.00;93468.41;5094217;28;20063;-81
2021/11/09 02:16:12;;;;;;;20.88;13.15;;;;;;;9.80;100.00;93464.66;5094699;28;20052;-80
2021/11/09 02:18:39;;;;;;;23.67;12.70;;;;;;;9.63;100.00;93458.16;5094249;28;20056;-80
2021/11/09 02:21:11;;;;;;;22.38;14.40;;;;;;;9.52;100.00;93461.31;5094316;28;20494;-80
2021/11/09 02:23:42;;;;;;;22.60;13.82;;;;;;;9.49;100.00;93467.63;5094460;28;20150;-81
2021/11/09 02:26:10;;;;;;;23.27;13.20;;;;;;;9.52;100.00;93486.97;5094019;28;20054;-81
2021/11/09 02:28:38;;;;;;;21.02;12.57;;;;;;;9.51;100.00;93494.84;5094723;28;20051;-80
2021/11/09 02:31:06;;;;;;;27.02;14.10;;;;;;;9.49;100.00;93495.03;5094532;28;20088;-81
2021/11/09 02:33:33;;;;;;;25.27;15.57;;;;;;;9.39;100.00;93495.41;5094448;28;20047;-81
2021/11/09 02:36:00;;;;;;;25.15;14.00;;;;;;;9.34;100.00;93488.31;5094425;28;20044;-81
2021/11/09 02:38:29;;;;;;;20.95;13.77;;;;;;;9.27;100.00;93492.66;5093699;28;20607;-80
2021/11/09 02:40:56;;;;;;;19.60;13.85;;;;;;;9.13;100.00;93480.78;5094149;28;20051;-80
2021/11/09 02:43:23;;;;;;;20.02;13.15;;;;;;;9.15;100.00;93494.97;5093939;28;20048;-81
2021/11/09 02:46:08;;;;;;;24.98;13.88;;;;;;;9.19;100.00;93495.38;5093484;28;20051;-80
2021/11/09 02:48:38;;;;;;;25.85;14.80;;;;;;;9.21;100.00;93493.41;5093817;28;20052;-80
2021/11/09 02:51:09;;;;;;;21.48;13.27;;;;;;;9.05;100.00;93466.38;5093690;28;20079;-80
2021/11/09 02:53:41;;;;;;;23.83;14.43;;;;;;;9.15;100.00;93489.06;5093534;28;20600;-80
2021/11/09 02:56:14;;;;;;;22.83;13.38;;;;;;;9.07;100.00;93482.31;5093425;28;20062;-78
2021/11/09 02:58:47;;;;;;;21.85;13.40;;;;;;;9.06;100.00;93486.69;5093787;28;20067;-78
2021/11/09 03:01:20;;;;;;;22.58;13.23;;;;;;;8.93;100.00;93466.94;5093765;28;20040;-78
2021/11/09 03:03:54;;;;;;;27.58;13.85;;;;;;;8.98;100.00;93493.75;5093088;28;20464;-78
2021/11/09 03:06:29;;;;;;;22.60;13.20;;;;;;;8.93;100.00;93502.00;5093064;28;20138;-78
2021/11/09 03:09:02;;;;;;;28.80;15.82;;;;;;;8.82;100.00;93506.72;5093177;28;20083;-78
2021/11/09 03:11:29;;;;;;;23.33;14.15;;;;;;;8.77;100.00;93505.69;5092512;28;20340;-79
2021/11/09 03:13:57;;;;;;;22.13;13.77;;;;;;;8.74;100.00;93516.34;5093009;28;20048;-82
2021/11/09 03:16:26;;;;;;;23.95;14.05;;;;;;;8.69;100.00;93517.69;5092714;28;20071;-82
2021/11/09 03:18:58;;;;;;;22.48;14.35;;;;;;;8.68;100.00;93518.66;5093144;28;20043;-82
2021/11/09 03:40:49;;;;;;;21.65;14.43;;;;;;;8.43;100.00;93516.53;5092771;28;20100;-81
2021/11/09 03:45:57;;;;;;;22.02;13.35;;;;;;;8.28;100.00;93492.81;5068279;28;20440;-80
2021/11/09 03:48:24;;;;;;;27.15;14.35;;;;;;;7.99;100.00;93487.72;5092185;28;20056;-81
2021/11/09 03:50:51;;;;;;;24.92;15.68;;;;;;;7.85;100.00;93503.94;5092372;28;20047;-81
2021/11/09 03:53:21;;;;;;;25.38;15.90;;;;;;;7.85;100.00;93501.38;5092228;28;20051;-81
2021/11/09 03:56:10;;;;;;;27.20;15.43;;;;;;;7.98;100.00;93516.03;5092046;28;20646;-80
2021/11/09 03:58:40;;;;;;;25.63;14.30;;;;;;;8.00;100.00;93511.53;5092428;28;20410;-82
2021/11/09 04:01:10;;;;;;;27.73;14.55;;;;;;;8.06;100.00;93508.22;5092133;28;20048;-81
2021/11/09 04:03:49;;;;;;;24.80;15.10;;;;;;;8.11;100.00;93497.44;5092118;28;20040;-80
2021/11/09 04:06:27;;;;;;;26.23;16.13;;;;;;;7.84;100.00;93458.88;5092246;28;20048;-80
2021/11/09 04:08:59;;;;;;;24.85;15.35;;;;;;;8.12;100.00;93510.06;5092144;28;20520;-80
2021/11/09 04:11:32;;;;;;;24.55;14.35;;;;;;;8.11;100.00;93513.56;5092440;28;20131;-81
2021/11/09 04:14:06;;;;;;;24.13;14.25;;;;;;;8.07;100.00;93514.94;5091577;28;20435;-81
2021/11/09 04:16:39;;;;;;;23.83;14.73;;;;;;;7.92;100.00;93468.97;5091977;28;20139;-81
2021/11/09 04:19:16;;;;;;;23.63;15.18;;;;;;;8.11;100.00;93487.22;5092022;28;20040;-82
2021/11/09 04:30:11;;;;;;;22.10;14.63;;;;;;;7.93;100.00;93511.50;5091545;27;20116;-81
2021/11/09 05:02:51;;;;;;;30.63;19.92;;;;;;;6.92;100.00;93569.28;5091445;28;20059;-81
2021/11/09 05:10:56;;;;;;;30.80;20.67;;;;;;;7.19;100.00;93577.25;5080353;28;20087;-81
2021/11/09 05:13:24;;;;;;;34.97;21.48;;;;;;;7.34;100.00;93577.22;5091298;28;20051;-82
2021/11/09 05:15:52;;;;;;;29.70;19.17;;;;;;;7.43;100.00;93554.91;5091360;28;20051;-81
2021/11/09 05:18:20;;;;;;;26.80;17.27;;;;;;;7.58;100.00;93558.22;5091579;28;20051;-81
2021/11/09 05:20:47;;;;;;;28.13;18.42;;;;;;;7.69;100.00;93568.94;5092052;28;20048;-81
2021/11/09 05:23:14;;;;;;;32.08;16.60;;;;;;;7.71;100.00;93585.66;5092328;28;20588;-81
2021/11/09 05:25:41;;;;;;;28.10;15.35;;;;;;;7.77;100.00;93588.47;5091685;28;20423;-80
2021/11/09 05:28:09;;;;;;;25.95;15.90;;;;;;;7.67;100.00;93566.56;5090454;28;20518;-80
2021/11/09 05:30:37;;;;;;;25.42;15.52;;;;;;;7.76;100.00;93587.66;5091090;28;20047;-80
2021/11/09 05:33:06;;;;;;;24.73;15.10;;;;;;;7.83;100.00;93598.75;5090900;28;20060;-80
2021/11/09 05:35:34;;;;;;;26.95;16.95;;;;;;;7.88;100.00;93596.44;5093366;28;20044;-80
2021/11/09 05:38:03;;;;;;;27.90;15.95;;;;;;;7.88;100.00;93588.75;5094501;28;20529;-80
2021/11/09 05:40:33;;;;;;;26.35;15.90;;;;;;;7.92;100.00;93604.53;5096975;28;20410;-80
2021/11/09 05:43:01;;;;;;;16.52;12.32;;;;;;;7.83;100.00;93608.19;5099401;28;20130;-79
2021/11/09 05:45:29;;;;;;;19.25;13.10;;;;;;;7.86;100.00;93618.84;5097672;28;20494;-79
2021/11/09 05:47:56;;;;;;;23.98;15.32;;;;;;;7.72;100.00;93617.94;5092571;28;20044;-79
2021/11/09 05:50:24;;;;;;;24.52;15.65;;;;;;;7.75;100.00;93621.91;5092133;28;20056;-79
2021/11/09 05:52:51;;;;;;;26.85;15.38;;;;;;;7.83;100.00;93618.44;5092374;28;20465;-79
2021/11/09 05:55:18;;;;;;;24.50;15.38;;;;;;;7.97;100.00;93622.69;5092759;28;20033;-81
2021/11/09 05:57:45;;;;;;;27.70;15.90;;;;;;;7.97;100.00;93602.22;5092307;28;20048;-81
2021/11/09 06:00:14;;;;;;;20.70;14.13;;;;;;;8.27;100.00;93621.75;5092519;28;20087;-79
2021/11/09 06:02:42;;;;;;;21.33;13.85;;;;;;;8.45;100.00;93631.56;5092246;28;20101;-81
2021/11/09 06:05:09;;;;;;;21.95;12.32;;;;;;;8.53;100.00;93648.56;5092094;28;20048;-81
2021/11/09 06:07:38;;;;;;;19.83;11.88;;;;;;;8.63;100.00;93635.44;5092014;28;20048;-80
2021/11/09 06:10:06;;;;;;;21.35;12.68;;;;;;;8.55;100.00;93621.81;5091916;28;20069;-80
2021/11/09 06:12:33;;;;;;;28.67;14.23;;;;;;;8.76;100.00;93642.44;5092159;28;20410;-81
2021/11/09 06:15:00;;;;;;;26.20;13.20;;;;;;;8.72;100.00;93630.97;5091768;28;20056;-81
2021/11/09 06:17:27;;;;;;;20.92;12.85;;;;;;;8.84;100.00;93633.81;5091875;28;20048;-81
2021/11/09 06:19:53;;;;;;;20.95;11.93;;;;;;;8.89;100.00;93621.22;5091984;28;20044;-81
2021/11/09 06:22:22;;;;;;;27.30;13.00;;;;;;;9.08;100.00;93637.69;5091674;28;20568;-81
2021/11/09 06:24:50;;;;;;;18.60;12.30;;;;;;;9.14;100.00;93633.56;5092362;28;20052;-81
2021/11/09 06:27:18;;;;;;;22.23;12.48;;;;;;;9.29;100.00;93639.34;5091926;28;20052;-81
2021/11/09 06:29:45;;;;;;;20.98;12.07;;;;;;;9.40;100.00;93629.53;5091563;28;20060;-81
2021/11/09 06:32:12;;;;;;;19.52;13.80;;;;;;;9.57;100.00;93647.94;5091794;28;20047;-81
2021/11/09 06:34:39;;;;;;;17.63;11.65;;;;;;;9.69;100.00;93641.28;5091584;28;20044;-81
2021/11/09 06:37:06;;;;;;;14.85;10.40;;;;;;;9.65;100.00;93626.47;5098182;28;20047;-81
2021/11/09 06:39:32;;;;;;;15.43;9.77;;;;;;;9.76;100.00;93647.22;5110364;28;20341;-81
2021/11/09 06:42:01;;;;;;;19.38;13.90;;;;;;;9.69;100.00;93641.28;5111356;28;20056;-81
2021/11/09 06:44:28;;;;;;;22.65;15.73;;;;;;;9.55;100.00;93647.34;5111988;28;20048;-81
2021/11/09 06:46:55;;;;;;;19.55;12.98;;;;;;;9.62;100.00;93659.22;5111488;28;20051;-81
2021/11/09 06:49:22;;;;;;;21.80;15.43;;;;;;;9.52;100.00;93673.34;5111564;28;20058;-81
2021/11/09 06:51:49;;;;;;;21.27;14.95;;;;;;;9.35;100.00;93669.34;5111398;28;20047;-81
2021/11/09 06:54:16;;;;;;;24.08;15.77;;;;;;;9.45;100.00;93624.63;5111735;28;20048;-81
2021/11/09 06:56:43;;;;;;;22.10;14.80;;;;;;;9.82;100.00;93658.47;5111430;28;20043;-81
2021/11/09 06:59:14;;;;;;;21.88;14.98;;;;;;;9.89;100.00;93643.09;5111148;28;20054;-82
2021/11/09 07:01:41;;;;;;;22.80;14.50;;;;;;;10.06;100.00;93653.00;5110821;28;20043;-82
2021/11/09 07:04:08;;;;;;;19.33;12.68;;;;;;;10.07;100.00;93664.84;5111183;28;20101;-82
2021/11/09 07:06:35;;;;;;;22.00;12.10;;;;;;;10.16;100.00;93664.47;5111519;28;20445;-82
2021/11/09 07:09:02;;;;;;;15.25;10.90;;;;;;;10.06;100.00;93674.34;5111143;28;20593;-81
2021/11/09 07:11:28;;;;;;;17.98;10.88;;;;;;;10.26;100.00;93683.81;5111014;28;20058;-81
2021/11/09 07:13:55;;;;;;;15.93;10.45;;;;;;;10.30;100.00;93679.91;5111019;28;20050;-82
2021/11/09 07:16:24;;;;;;;15.15;9.73;;;;;;;10.39;100.00;93686.44;5110929;28;20051;-82
2021/11/09 07:18:57;;;;;;;18.90;11.50;;;;;;;10.40;100.00;93669.22;5110972;28;20047;-82
2021/11/09 07:21:23;;;;;;;17.98;10.90;;;;;;;10.74;100.00;93705.25;5110801;28;20560;-82
2021/11/09 07:23:50;;;;;;;20.00;9.75;;;;;;;10.86;100.00;93708.00;5110880;28;20112;-82
2021/11/09 07:26:17;;;;;;;15.60;9.82;;;;;;;10.06;100.00;93648.66;5109455;28;20048;-82
2021/11/09 07:28:45;;;;;;;16.15;9.90;;;;;;;10.35;100.00;93715.25;5110187;28;20085;-82
2021/11/09 07:31:15;;;;;;;14.63;10.63;;;;;;;10.65;100.00;93725.97;5110916;28;20061;-81
2021/11/09 07:33:43;;;;;;;16.25;11.50;;;;;;;10.67;100.00;93713.75;5109902;28;20054;-82
2021/11/09 07:36:10;;;;;;;20.00;11.75;;;;;;;10.79;100.00;93738.84;5109595;28;20047;-81
2021/11/09 07:38:37;;;;;;;21.10;13.45;;;;;;;10.68;100.00;93748.72;5109411;28;20051;-82
2021/11/09 07:41:04;;;;;;;17.67;12.52;;;;;;;10.84;100.00;93744.19;5109377;28;20043;-82
2021/11/09 07:43:31;;;;;;;20.75;13.35;;;;;;;10.86;100.00;93741.41;5110913;28;20040;-82
2021/11/09 07:45:59;;;;;;;20.70;13.45;;;;;;;10.99;100.00;93756.84;5110527;28;20051;-81
2021/11/09 07:48:26;;;;;;;22.55;13.75;;;;;;;11.16;100.00;93759.00;5110657;28;20471;-81
2021/11/09 07:50:54;;;;;;;22.15;13.98;;;;;;;10.72;100.00;93754.25;5110676;28;20043;-79
2021/11/09 07:53:23;;;;;;;23.50;14.93;;;;;;;10.90;100.00;93755.44;5110230;28;20047;-79
2021/11/09 07:55:52;;;;;;;24.38;15.15;;;;;;;10.88;100.00;93765.91;5110256;28;20093;-81
2021/11/09 07:58:29;;;;;;;20.65;13.27;;;;;;;10.39;100.00;93762.66;5110186;28;20463;-82
2021/11/09 08:01:06;;;;;;;21.95;13.25;;;;;;;10.77;100.00;93781.91;5110112;28;20138;-81
2021/11/09 08:03:36;;;;;;;20.65;12.82;;;;;;;10.35;100.00;93782.00;5110249;28;20079;-81
2021/11/09 08:06:13;;;;;;;20.55;11.85;;;;;;;10.50;100.00;93787.00;5109896;28;20071;-81
2021/11/09 08:08:45;;;;;;;18.40;11.65;;;;;;;10.67;100.00;93785.69;5109695;28;20047;-81
2021/11/09 08:11:12;;;;;;;17.35;10.93;;;;;;;9.98;100.00;93813.09;5110040;28;20066;-81
2021/11/09 08:13:39;;;;;;;16.55;9.70;;;;;;;9.58;100.00;93809.31;5110210;28;20159;-81
2021/11/09 08:16:06;;;;;;;17.67;11.00;;;;;;;9.23;100.00;93802.38;5110005;28;20056;-81
2021/11/09 08:18:33;;;;;;;17.23;10.88;;;;;;;9.47;100.00;93815.78;5109379;28;20043;-82
2021/11/09 08:21:00;;;;;;;17.35;12.00;;;;;;;9.34;100.00;93826.75;5110295;28;20056;-81
2021/11/09 08:23:29;;;;;;;18.95;12.27;;;;;;;9.06;100.00;93816.44;5110257;28;20040;-82
2021/11/09 08:25:55;;;;;;;14.25;9.98;;;;;;;8.80;100.00;93825.50;5110165;28;20051;-81
2021/11/09 08:28:23;;;;;;;15.23;9.88;;;;;;;8.60;100.00;93804.84;5109793;28;20061;-82
2021/11/09 08:30:52;;;;;;;15.48;9.93;;;;;;;8.42;100.00;93819.59;5082523;27;20055;-81
2021/11/09 08:33:20;;;;;;;16.65;10.02;;;;;;;8.09;100.00;93799.53;5110071;28;20072;-81
2021/11/09 08:35:47;;;;;;;17.75;10.15;;;;;;;8.24;100.00;93835.34;5110088;28;20070;-81
2021/11/09 08:38:16;;;;;;;14.60;9.73;;;;;;;8.16;100.00;93818.31;5110086;28;20047;-81
2021/11/09 08:40:45;;;;;;;16.90;9.63;;;;;;;8.25;100.00;93831.81;5110019;28;20048;-81
2021/11/09 08:43:16;;;;;;;17.13;10.65;;;;;;;8.48;100.00;93830.09;5109545;28;20050;-80
2021/11/09 08:45:51;;;;;;;16.08;9.55;;;;;;;8.40;100.00;93823.31;5109897;28;20100;-81
2021/11/09 08:48:19;;;;;;;14.32;9.90;;;;;;;8.51;100.00;93830.50;5109499;28;20048;-81
2021/11/09 08:50:48;;;;;;;14.50;8.50;;;;;;;8.16;100.00;93795.28;5109847;28;20128;-81
2021/11/09 08:53:20;;;;;;;14.52;9.35;;;;;;;8.38;100.00;93825.25;5110056;28;20047;-81
2021/11/09 09:01:41;;;;;;;12.68;8.50;;;;;;;8.20;100.00;93825.66;5109592;28;20091;-81
2021/11/09 09:04:16;;;;;;;15.15;10.02;;;;;;;8.31;100.00;93867.88;5109325;28;20136;-80
2021/11/09 09:06:44;;;;;;;33.22;17.13;;;;;;;8.28;100.00;93864.72;5109642;28;20097;-81
2021/11/09 09:09:11;;;;;;;13.20;9.43;;;;;;;7.98;100.00;93831.50;5109360;28;20052;-81
2021/11/09 09:11:39;;;;;;;17.42;10.10;;;;;;;8.22;100.00;93844.97;5113593;28;20077;-80
2021/11/09 09:14:06;;;;;;;14.48;9.60;;;;;;;8.33;100.00;93846.25;5113785;28;20044;-81
2021/11/09 09:16:36;;;;;;;11.60;8.18;;;;;;;8.33;100.00;93833.47;5113873;28;20088;-81
2021/11/09 09:19:05;;;;;;;12.02;8.10;;;;;;;8.43;100.00;93866.47;5109156;28;20419;-81
2021/11/09 09:21:35;;;;;;;14.98;9.27;;;;;;;8.17;100.00;93854.94;5109468;28;20048;-81
2021/11/09 09:24:09;;;;;;;17.00;10.30;;;;;;;8.29;100.00;93881.66;5111050;28;20054;-81
2021/11/09 09:26:39;;;;;;;16.88;10.07;;;;;;;8.26;100.00;93878.69;5113547;28;20048;-81
2021/11/09 09:29:24;;;;;;;14.93;9.02;;;;;;;8.26;100.00;93884.59;5113561;28;20058;-81
2021/11/09 09:54:07;;;;;;;15.40;10.02;;;;;;;8.05;100.00;93903.22;5112533;28;20101;-81
2021/11/09 09:56:42;;;;;;;15.57;9.23;;;;;;;7.92;100.00;93919.16;5112555;28;20503;-81
2021/11/09 09:59:11;;;;;;;9.00;5.85;;;;;;;7.95;100.00;93954.63;5112861;28;20047;-81
2021/11/09 10:01:42;;;;;;;11.95;7.85;;;;;;;7.91;100.00;93965.41;5113108;28;20050;-81
2021/11/09 10:04:30;;;;;;;7.72;5.25;;;;;;;7.65;100.00;93969.94;5112476;28;20490;-81
2021/11/09 10:06:58;;;;;;;9.45;5.82;;;;;;;7.62;100.00;93942.16;5112342;28;20043;-81
2021/11/09 10:09:35;;;;;;;10.38;7.55;;;;;;;7.68;100.00;93966.25;5112895;28;20047;-81
2021/11/09 10:12:15;;;;;;;10.90;7.22;;;;;;;7.58;100.00;93969.03;5112195;28;20081;-81
2021/11/09 10:14:42;;;;;;;9.52;6.72;;;;;;;7.61;100.00;93977.16;5112406;28;20074;-81
2021/11/09 10:17:12;;;;;;;9.48;6.00;;;;;;;7.51;100.00;93973.22;5112491;28;20044;-81
2021/11/09 10:19:39;;;;;;;10.98;8.05;;;;;;;7.43;100.00;93979.19;5112691;28;20142;-82
2021/11/09 10:22:17;;;;;;;12.55;8.73;;;;;;;7.54;100.00;93996.69;5111822;28;20040;-82
2021/11/09 10:24:51;;;;;;;9.63;6.93;;;;;;;7.46;100.00;93978.88;5112200;28;20096;-81
2021/11/09 10:27:19;;;;;;;16.10;10.50;;;;;;;7.41;100.00;93976.81;5112019;28;20179;-81
2021/11/09 10:29:46;;;;;;;12.70;7.47;;;;;;;7.56;100.00;93991.41;5111931;28;20062;-81
2021/11/09 10:32:16;;;;;;;13.98;8.55;;;;;;;7.28;100.00;93967.19;5110456;28;20054;-80
2021/11/09 10:34:44;;;;;;;28.60;13.23;;;;;;;7.08;100.00;93946.34;5091493;28;20097;-81
2021/11/09 10:37:25;;;;;;;15.60;9.02;;;;;;;7.30;100.00;93987.44;5091410;28;20052;-81
2021/11/09 10:39:55;;;;;;;23.30;15.52;;;;;;;7.30;100.00;93960.13;5091661;28;20051;-81
2021/11/09 10:42:23;;;;;;;14.48;9.82;;;;;;;7.54;100.00;93991.59;5091276;28;20044;-81
2021/11/09 10:44:56;;;;;;;11.73;7.78;;;;;;;7.45;100.00;93977.28;5091671;28;20118;-81
2021/11/09 10:47:27;;;;;;;13.02;7.78;;;;;;;7.55;100.00;93994.94;5091148;28;20411;-82
2021/11/09 10:49:58;;;;;;;12.70;9.35;;;;;;;7.86;100.00;94012.75;5091422;28;20045;-82
2021/11/09 10:52:28;;;;;;;15.25;10.07;;;;;;;7.63;100.00;93997.44;5091003;28;20514;-81
2021/11/09 10:55:09;;;;;;;13.10;8.98;;;;;;;7.60;100.00;94016.47;5091393;28;20054;-82
2021/11/09 10:57:48;;;;;;;15.65;8.82;;;;;;;7.67;100.00;94024.25;5090816;28;20055;-84
2021/11/09 11:00:57;;;;;;;12.13;8.65;;;;;;;7.62;100.00;94034.19;5091047;28;20052;-84
2021/11/09 11:03:31;;;;;;;13.73;8.77;;;;;;;7.51;100.00;94032.84;5091279;28;20135;-83
2021/11/09 11:06:10;;;;;;;14.25;9.55;;;;;;;7.37;100.00;94036.91;5090710;28;20511;-83
2021/11/09 11:08:38;;;;;;;15.13;8.75;;;;;;;7.05;100.00;93997.81;5090934;28;20067;-82
2021/11/09 11:11:20;;;;;;;13.80;8.55;;;;;;;7.22;100.00;94029.16;5091071;28;20566;-81
2021/11/09 11:13:48;;;;;;;14.65;9.77;;;;;;;7.32;100.00;94057.06;5088898;28;20486;-82
2021/11/09 11:16:17;;;;;;;10.77;7.55;;;;;;;7.34;100.00;94032.94;5090735;28;20044;-81
2021/11/09 11:18:47;;;;;;;17.80;9.50;;;;;;;7.31;100.00;94035.81;5091392;28;20098;-80
2021/11/09 11:21:16;;;;;;;14.18;8.35;;;;;;;7.42;100.00;94050.00;5091116;28;20050;-81
2021/11/09 11:23:45;;;;;;;12.23;8.00;;;;;;;7.32;100.00;94050.19;5090909;28;20048;-81
2021/11/09 11:26:13;;;;;;;15.43;9.20;;;;;;;7.66;100.00;94050.78;5090512;28;20055;-81
2021/11/09 11:28:43;;;;;;;14.85;10.20;;;;;;;7.55;100.00;94057.09;5090624;28;20143;-81
2021/11/09 11:31:12;;;;;;;14.25;9.82;;;;;;;7.52;100.00;94047.22;5090420;28;20063;-81
2021/11/09 11:33:40;;;;;;;15.98;11.05;;;;;;;7.53;100.00;94051.34;5089868;28;20044;-81
2021/11/09 11:36:09;;;;;;;12.07;7.35;;;;;;;7.41;100.00;94038.16;5090471;28;20392;-81
2021/11/09 11:38:40;;;;;;;13.10;7.55;;;;;;;7.47;100.00;94065.63;5090284;28;20097;-81
2021/11/09 11:41:07;;;;;;;20.83;10.85;;;;;;;7.51;100.00;94065.28;5090355;28;20388;-81
2021/11/09 11:43:54;;;;;;;13.43;8.35;;;;;;;7.37;100.00;94079.56;5090476;28;20414;-81
2021/11/09 11:46:57;;;;;;;18.73;9.98;;;;;;;7.43;100.00;94094.22;5090336;28;20044;-81
2021/11/09 11:49:31;;;;;;;7.82;6.05;;;;;;;7.49;100.00;94079.03;5089832;28;20116;-81
2021/11/09 11:52:06;;;;;;;7.97;5.68;;;;;;;7.60;100.00;94108.50;5090000;28;20058;-81
2021/11/09 11:54:43;;;;;;;9.90;6.47;;;;;;;7.71;100.00;94127.00;5090387;28;20044;-81
2021/11/09 11:57:11;;;;;;;55.80;21.65;;;;;;;7.35;100.00;94120.63;5090313;28;20048;-81
2021/11/09 11:59:42;;;;;;;9.30;6.30;;;;;;;6.83;100.00;94104.84;5092426;28;20047;-81
2021/11/09 12:02:11;;;;;;;7.78;5.38;;;;;;;6.74;100.00;94113.47;5108598;28;20048;-81
2021/11/09 12:04:53;;;;;;;15.63;9.15;;;;;;;6.72;100.00;94153.72;5110025;28;20104;-81
2021/11/09 12:07:42;;;;;;;15.27;9.10;;;;;;;6.53;100.00;94143.66;5110004;28;20054;-82
2021/11/09 12:10:11;;;;;;;8.20;5.55;;;;;;;6.33;100.00;94163.63;5110450;28;20040;-81
2021/11/09 12:12:38;;;;;;;11.02;5.68;;;;;;;6.12;100.00;94159.00;5110014;28;20084;-80
2021/11/09 12:15:08;;;;;;;13.57;7.97;;;;;;;6.24;100.00;94180.69;5110359;28;20044;-81
2021/11/09 12:17:37;;;;;;;17.83;10.10;;;;;;;5.96;100.00;94157.16;5109980;28;20058;-80
2021/11/09 12:20:07;;;;;;;17.27;10.23;;;;;;;6.08;100.00;94165.34;5109696;28;20494;-80
2021/11/09 12:22:42;;;;;;;14.48;8.40;;;;;;;6.19;100.00;94188.00;5109743;28;20533;-80
2021/11/09 12:25:11;;;;;;;12.60;7.70;;;;;;;6.24;100.00;94200.28;5109800;28;20047;-81
2021/11/09 12:28:05;;;;;;;10.32;6.95;;;;;;;6.18;100.00;94193.25;5109891;28;20043;-81
2021/11/09 12:30:46;;;;;;;17.33;11.43;;;;;;;5.98;100.00;94181.56;5110010;28;20096;-81
2021/11/09 12:33:15;;;;;;;18.30;11.13;;;;;;;6.03;100.00;94216.03;5109981;28;20044;-80
2021/11/09 12:35:44;;;;;;;21.27;11.98;;;;;;;6.04;100.00;94215.91;5109867;28;20040;-80
2021/11/09 12:38:18;;;;;;;21.42;13.43;;;;;;;6.15;100.00;94205.38;5109826;28;20079;-80
2021/11/09 12:40:51;;;;;;;14.32;8.60;;;;;;;6.04;100.00;94194.69;5109722;28;20127;-81
2021/11/09 12:43:21;;;;;;;14.88;9.85;;;;;;;6.22;100.00;94225.16;5109619;28;20130;-80
2021/11/09 12:45:52;;;;;;;9.60;6.32;;;;;;;6.18;100.00;94223.88;5109871;28;20047;-80
2021/11/09 12:48:26;;;;;;;8.75;5.95;;;;;;;5.92;100.00;94189.06;5109723;28;20047;-80
2021/11/09 12:50:56;;;;;;;8.85;6.50;;;;;;;6.05;100.00;94206.47;5109468;28;20100;-80
2021/11/09 12:53:25;;;;;;;14.57;8.57;;;;;;;6.24;100.00;94236.00;5109532;28;20043;-80
2021/11/09 12:55:58;;;;;;;9.52;6.13;;;;;;;6.22;100.00;94235.38;5109632;28;20552;-80
2021/11/09 12:58:27;;;;;;;4.15;2.60;;;;;;;6.17;100.00;94235.84;5109428;28;20063;-80
2021/11/09 13:01:19;;;;;;;4.45;3.35;;;;;;;6.22;100.00;94237.94;5109701;28;20147;-80
2021/11/09 13:04:07;;;;;;;3.80;2.30;;;;;;;6.25;100.00;94232.53;5109929;28;20048;-81
2021/11/09 13:06:50;;;;;;;8.60;6.03;;;;;;;6.38;100.00;94224.38;5109416;28;20473;-80
2021/11/09 13:09:21;;;;;;;3.67;2.10;;;;;;;6.24;100.00;94226.59;5109017;28;20116;-80